KCVG/CVG METAR and TAF weather

Enter ICAO airport designator
Station Type Date Time Source
KCVG METAR 2022/06/27 16:52 UTC NOAA

KCVG 271652Z 04005G17KT 10SM FEW055 25/11 A3022 RMK AO2 SLP223 T02500106


Station Type Date Time Source
KCVG Decoded METAR 2022/06/27 16:52 UTC NOAA

CINCINNATI/NORTHERN KY INTERNATIONAL , KY, United States (KCVG) 39-03N 084-40W 269M
Jun 27, 2022 - 12:52 PM EDT / 2022.06.27 1652 UTC
Wind: from the NE (040 degrees) at 6 MPH (5 KT) gusting to 20 MPH (17 KT):0
Visibility: 10 mile(s):0
Sky conditions: mostly clear
Temperature: 77.0 F (25.0 C)
Dew Point: 51.1 F (10.6 C)
Relative Humidity: 40%
Pressure (altimeter): 30.22 in. Hg (1023 hPa)
ob: KCVG 271652Z 04005G17KT 10SM FEW055 25/11 A3022 RMK AO2 SLP223 T02500106
cycle: 17

Station Type Date Time Source
KCVG TAF 2022/06/27 18:22 UTC NOAA

TAF KCVG 271720Z 2718/2824 34012KT P6SM SCT050
FM280000 01005KT P6SM SCT250
FM281500 03006KT P6SM SKC

Example: see airport list